Accueil
METAR-TAF:

METAR-TAF

Aéroports :

Aéroport de Montpellier-Méditerranée

Montpellier, France

latitude: 43-35N, longitude: 003-58E, altitude: 5 m

Observation

Le bulletin a été fait il y a 43 minutes, à 11:00 UTC
Vent 5 kt de direction variable
Température 17°C
Humidité 39%
Pression 1015 hPa
Visibilité 10 km ou plus
pas de nuages en-dessous de 1500 mètres et pas de cumulonimbus.

METAR: LFMT 031100Z AUTO VRB05KT CAVOK 17/03 Q1015 NOSIG

Heure: 13:43 (11:43 UTC)

Prévision

Le bulletin a été fait il y a 3 heures et 43 minutes, à 08:00 UTC
Prévision valable du 03 à 09 UTC au 04 à 09 UTC
Vent 10 kt de nord/nord-ouest
Visibilité 10 km ou plus
pas de nuages en-dessous de 1500 mètres et pas de cumulonimbus.
Temporairement
du 03 à 14 UTC au 03 à 18 UTC
Vent 10 kt de ouest/sud-ouest
Evoluant progressivement
du 03 à 18 UTC au 03 à 20 UTC
Vent 5 kt de nord

TAF: LFMT 030800Z 0309/0409 33010KT CAVOK TEMPO 0314/0318 24010KT BECMG 0318/0320 35005KT

Observations et prévisions météorologiques de plus de 4000 aéroports (messages METAR et TAF).

Les stations disponibles sont représentées par des disques jaunes et rouges sur la carte.

Passer la souris dessus pour voir le nom de la station.

Cliquer dessus pour voir les observations et prévisions météorologiques.

Pour changer de carte: cliquez sur les boutons verts avec une croix noire pour zoomer, sur le bouton vert avec un tiret pour effectuer un zoom arrière, ou sur les flèches vertes pour les cartes adjacentes.


METAR-TAF: